sensor_id;sensor_type;location;lat;lon;timestamp;pressure;altitude;pressure_sealevel;temperature;humidity
6218;BME280;3142;48.206;11.550;2022-11-15T00:01:18;95711.72;;;7.36;79.38
6218;BME280;3142;48.206;11.550;2022-11-15T00:03:45;95710.28;;;7.33;80.02
6218;BME280;3142;48.206;11.550;2022-11-15T00:06:12;95717.63;;;7.30;80.44
6218;BME280;3142;48.206;11.550;2022-11-15T00:08:38;95707.06;;;7.31;79.93
6218;BME280;3142;48.206;11.550;2022-11-15T00:11:08;95703.63;;;7.31;79.49
6218;BME280;3142;48.206;11.550;2022-11-15T00:13:36;95707.06;;;7.31;80.03
6218;BME280;3142;48.206;11.550;2022-11-15T00:16:02;95712.50;;;7.36;79.04
6218;BME280;3142;48.206;11.550;2022-11-15T00:18:29;95707.75;;;7.40;79.89
6218;BME280;3142;48.206;11.550;2022-11-15T00:21:03;95697.53;;;7.38;78.66
6218;BME280;3142;48.206;11.550;2022-11-15T00:23:30;95692.59;;;7.43;79.69
6218;BME280;3142;48.206;11.550;2022-11-15T00:25:56;95691.06;;;7.49;78.41
6218;BME280;3142;48.206;11.550;2022-11-15T00:28:25;95698.59;;;7.59;79.14
6218;BME280;3142;48.206;11.550;2022-11-15T00:30:51;95691.97;;;7.56;77.75
6218;BME280;3142;48.206;11.550;2022-11-15T00:33:18;95697.97;;;7.57;78.21
6218;BME280;3142;48.206;11.550;2022-11-15T00:35:45;95699.41;;;7.59;77.77
6218;BME280;3142;48.206;11.550;2022-11-15T00:38:12;95696.38;;;7.56;77.43
6218;BME280;3142;48.206;11.550;2022-11-15T00:40:38;95690.44;;;7.47;77.45
6218;BME280;3142;48.206;11.550;2022-11-15T00:43:05;95691.19;;;7.41;78.38
6218;BME280;3142;48.206;11.550;2022-11-15T00:45:33;95689.91;;;7.37;77.92
6218;BME280;3142;48.206;11.550;2022-11-15T00:47:59;95685.25;;;7.32;77.76
6218;BME280;3142;48.206;11.550;2022-11-15T00:50:26;95687.75;;;7.26;78.14
6218;BME280;3142;48.206;11.550;2022-11-15T00:52:53;95684.81;;;7.14;78.18
6218;BME280;3142;48.206;11.550;2022-11-15T00:55:19;95686.59;;;7.13;78.21
6218;BME280;3142;48.206;11.550;2022-11-15T00:57:46;95675.19;;;7.15;77.43
6218;BME280;3142;48.206;11.550;2022-11-15T01:00:14;95673.59;;;7.13;77.23
6218;BME280;3142;48.206;11.550;2022-11-15T01:02:42;95670.34;;;7.11;77.22
6218;BME280;3142;48.206;11.550;2022-11-15T01:05:09;95659.78;;;7.13;77.27
6218;BME280;3142;48.206;11.550;2022-11-15T01:07:35;95661.53;;;7.12;77.08
6218;BME280;3142;48.206;11.550;2022-11-15T01:10:02;95655.53;;;7.12;77.22
6218;BME280;3142;48.206;11.550;2022-11-15T01:12:29;95658.25;;;7.04;77.85
6218;BME280;3142;48.206;11.550;2022-11-15T01:14:56;95655.06;;;6.94;77.76
6218;BME280;3142;48.206;11.550;2022-11-15T01:17:23;95651.59;;;6.87;78.35
6218;BME280;3142;48.206;11.550;2022-11-15T01:19:51;95650.66;;;6.79;78.42
6218;BME280;3142;48.206;11.550;2022-11-15T01:22:18;95653.69;;;6.68;78.07
6218;BME280;3142;48.206;11.550;2022-11-15T01:24:44;95645.63;;;6.63;78.47
6218;BME280;3142;48.206;11.550;2022-11-15T01:27:10;95643.91;;;6.56;78.67
6218;BME280;3142;48.206;11.550;2022-11-15T01:29:37;95643.63;;;6.50;78.25
6218;BME280;3142;48.206;11.550;2022-11-15T01:32:04;95637.19;;;6.46;78.32
6218;BME280;3142;48.206;11.550;2022-11-15T01:34:30;95639.28;;;6.43;78.33
6218;BME280;3142;48.206;11.550;2022-11-15T01:36:58;95633.47;;;6.41;79.00
6218;BME280;3142;48.206;11.550;2022-11-15T01:39:25;95635.63;;;6.37;78.84
6218;BME280;3142;48.206;11.550;2022-11-15T01:41:51;95632.75;;;6.32;79.02
6218;BME280;3142;48.206;11.550;2022-11-15T01:44:40;95631.13;;;6.31;78.95
6218;BME280;3142;48.206;11.550;2022-11-15T01:47:10;95635.84;;;6.50;78.75
6218;BME280;3142;48.206;11.550;2022-11-15T01:49:39;95631.59;;;6.72;78.49
6218;BME280;3142;48.206;11.550;2022-11-15T01:52:11;95626.09;;;6.82;78.01
6218;BME280;3142;48.206;11.550;2022-11-15T01:54:39;95623.06;;;6.93;77.20
6218;BME280;3142;48.206;11.550;2022-11-15T01:57:08;95616.25;;;6.92;77.38
6218;BME280;3142;48.206;11.550;2022-11-15T01:59:36;95617.06;;;6.93;76.94
6218;BME280;3142;48.206;11.550;2022-11-15T02:02:04;95611.50;;;6.96;77.30
6218;BME280;3142;48.206;11.550;2022-11-15T02:04:32;95612.03;;;7.06;77.17
6218;BME280;3142;48.206;11.550;2022-11-15T02:07:01;95607.75;;;7.13;76.88
6218;BME280;3142;48.206;11.550;2022-11-15T02:09:30;95604.97;;;7.15;76.74
6218;BME280;3142;48.206;11.550;2022-11-15T02:11:57;95605.84;;;7.07;75.83
6218;BME280;3142;48.206;11.550;2022-11-15T02:14:26;95600.38;;;7.02;76.37
6218;BME280;3142;48.206;11.550;2022-11-15T02:16:59;95599.03;;;6.91;76.75
6218;BME280;3142;48.206;11.550;2022-11-15T02:19:55;95595.19;;;6.87;76.52
6218;BME280;3142;48.206;11.550;2022-11-15T02:22:37;95602.38;;;7.00;76.60
6218;BME280;3142;48.206;11.550;2022-11-15T02:25:24;95602.53;;;6.98;76.65
6218;BME280;3142;48.206;11.550;2022-11-15T02:28:24;95599.59;;;7.01;75.42
6218;BME280;3142;48.206;11.550;2022-11-15T02:30:55;95596.81;;;6.88;75.20
6218;BME280;3142;48.206;11.550;2022-11-15T02:33:30;95596.81;;;6.73;75.94
6218;BME280;3142;48.206;11.550;2022-11-15T02:36:00;95603.69;;;6.66;76.92
6218;BME280;3142;48.206;11.550;2022-11-15T02:38:31;95603.69;;;6.66;76.40
6218;BME280;3142;48.206;11.550;2022-11-15T02:41:03;95594.91;;;6.67;76.50
6218;BME280;3142;48.206;11.550;2022-11-15T02:43:36;95591.84;;;6.64;76.45
6218;BME280;3142;48.206;11.550;2022-11-15T02:46:27;95591.91;;;6.56;76.19
6218;BME280;3142;48.206;11.550;2022-11-15T02:49:15;95586.00;;;6.47;76.52
6218;BME280;3142;48.206;11.550;2022-11-15T02:51:43;95593.00;;;6.46;75.93
6218;BME280;3142;48.206;11.550;2022-11-15T02:54:12;95592.47;;;6.51;76.13
6218;BME280;3142;48.206;11.550;2022-11-15T02:56:40;95587.19;;;6.44;76.85
6218;BME280;3142;48.206;11.550;2022-11-15T02:59:17;95573.19;;;6.45;76.09
6218;BME280;3142;48.206;11.550;2022-11-15T03:01:59;95574.53;;;6.41;75.99
6218;BME280;3142;48.206;11.550;2022-11-15T03:04:36;95571.66;;;6.36;76.58
6218;BME280;3142;48.206;11.550;2022-11-15T03:07:09;95570.22;;;6.34;76.68
6218;BME280;3142;48.206;11.550;2022-11-15T03:09:41;95565.03;;;6.34;76.99
6218;BME280;3142;48.206;11.550;2022-11-15T03:12:12;95556.59;;;6.32;77.45
6218;BME280;3142;48.206;11.550;2022-11-15T03:14:48;95553.81;;;6.33;77.23
6218;BME280;3142;48.206;11.550;2022-11-15T03:17:23;95556.25;;;6.35;77.41
6218;BME280;3142;48.206;11.550;2022-11-15T03:19:54;95558.41;;;6.31;77.83
6218;BME280;3142;48.206;11.550;2022-11-15T03:22:24;95556.50;;;6.25;77.33
6218;BME280;3142;48.206;11.550;2022-11-15T03:24:54;95551.13;;;6.27;77.62
6218;BME280;3142;48.206;11.550;2022-11-15T03:27:26;95548.69;;;6.25;77.28
6218;BME280;3142;48.206;11.550;2022-11-15T03:29:56;95543.50;;;6.25;77.24
6218;BME280;3142;48.206;11.550;2022-11-15T03:32:28;95538.84;;;6.20;77.46
6218;BME280;3142;48.206;11.550;2022-11-15T03:34:58;95538.66;;;6.22;77.43
6218;BME280;3142;48.206;11.550;2022-11-15T03:37:30;95535.44;;;6.20;77.40
6218;BME280;3142;48.206;11.550;2022-11-15T03:39:57;95540.16;;;6.16;77.27
6218;BME280;3142;48.206;11.550;2022-11-15T03:42:28;95536.44;;;6.19;77.96
6218;BME280;3142;48.206;11.550;2022-11-15T03:45:01;95536.81;;;6.31;77.25
6218;BME280;3142;48.206;11.550;2022-11-15T03:47:34;95536.34;;;6.42;76.98
6218;BME280;3142;48.206;11.550;2022-11-15T03:50:06;95546.13;;;6.54;76.33
6218;BME280;3142;48.206;11.550;2022-11-15T03:52:34;95543.63;;;6.46;75.94
6218;BME280;3142;48.206;11.550;2022-11-15T03:55:03;95542.53;;;6.41;75.71
6218;BME280;3142;48.206;11.550;2022-11-15T03:57:30;95539.47;;;6.22;75.65
6218;BME280;3142;48.206;11.550;2022-11-15T03:59:56;95534.44;;;6.06;76.03
6218;BME280;3142;48.206;11.550;2022-11-15T04:02:23;95534.84;;;5.95;76.25
6218;BME280;3142;48.206;11.550;2022-11-15T04:04:51;95527.69;;;5.89;76.99
6218;BME280;3142;48.206;11.550;2022-11-15T04:07:17;95521.88;;;5.87;77.08
6218;BME280;3142;48.206;11.550;2022-11-15T04:09:44;95524.03;;;5.83;77.33
6218;BME280;3142;48.206;11.550;2022-11-15T04:12:28;95521.16;;;5.78;77.80
6218;BME280;3142;48.206;11.550;2022-11-15T04:14:59;95510.47;;;5.73;77.64
6218;BME280;3142;48.206;11.550;2022-11-15T04:17:37;95512.34;;;5.64;78.13
6218;BME280;3142;48.206;11.550;2022-11-15T04:20:07;95517.06;;;5.61;78.26
6218;BME280;3142;48.206;11.550;2022-11-15T04:22:52;95515.56;;;5.67;78.32
6218;BME280;3142;48.206;11.550;2022-11-15T04:25:36;95501.88;;;5.73;77.99
6218;BME280;3142;48.206;11.550;2022-11-15T04:28:03;95505.75;;;5.77;77.72
6218;BME280;3142;48.206;11.550;2022-11-15T04:30:29;95508.28;;;5.85;77.45
6218;BME280;3142;48.206;11.550;2022-11-15T04:32:56;95503.31;;;5.98;77.02
6218;BME280;3142;48.206;11.550;2022-11-15T04:35:24;95502.09;;;6.09;77.04
6218;BME280;3142;48.206;11.550;2022-11-15T04:40:21;95492.69;;;6.08;75.71
6218;BME280;3142;48.206;11.550;2022-11-15T04:42:48;95495.84;;;6.03;75.74
6218;BME280;3142;48.206;11.550;2022-11-15T04:45:15;95492.53;;;6.09;75.67
6218;BME280;3142;48.206;11.550;2022-11-15T04:47:43;95488.66;;;6.05;76.35
6218;BME280;3142;48.206;11.550;2022-11-15T04:50:11;95498.44;;;6.18;75.37
6218;BME280;3142;48.206;11.550;2022-11-15T04:52:40;95508.75;;;6.26;75.29
6218;BME280;3142;48.206;11.550;2022-11-15T04:55:07;95501.25;;;6.31;75.23
6218;BME280;3142;48.206;11.550;2022-11-15T04:57:34;95496.13;;;6.23;75.20
6218;BME280;3142;48.206;11.550;2022-11-15T05:00:01;95498.34;;;6.11;75.66
6218;BME280;3142;48.206;11.550;2022-11-15T05:02:28;95497.97;;;6.00;75.14
6218;BME280;3142;48.206;11.550;2022-11-15T05:05:15;95489.75;;;5.88;75.37
6218;BME280;3142;48.206;11.550;2022-11-15T05:07:42;95492.88;;;5.83;75.55
6218;BME280;3142;48.206;11.550;2022-11-15T05:10:08;95489.84;;;5.80;75.59
6218;BME280;3142;48.206;11.550;2022-11-15T05:12:35;95486.88;;;5.83;75.08
6218;BME280;3142;48.206;11.550;2022-11-15T05:15:02;95483.94;;;5.86;75.79
6218;BME280;3142;48.206;11.550;2022-11-15T05:17:28;95477.72;;;5.95;75.39
6218;BME280;3142;48.206;11.550;2022-11-15T05:19:55;95477.91;;;5.93;75.39
6218;BME280;3142;48.206;11.550;2022-11-15T05:22:22;95472.97;;;5.99;75.36
6218;BME280;3142;48.206;11.550;2022-11-15T05:24:49;95470.81;;;6.02;74.79
6218;BME280;3142;48.206;11.550;2022-11-15T05:27:16;95476.56;;;5.98;75.15
6218;BME280;3142;48.206;11.550;2022-11-15T05:29:42;95473.06;;;5.90;75.76
6218;BME280;3142;48.206;11.550;2022-11-15T05:32:11;95461.72;;;5.83;76.05
6218;BME280;3142;48.206;11.550;2022-11-15T05:34:38;95451.00;;;5.86;76.10
6218;BME280;3142;48.206;11.550;2022-11-15T05:37:05;95451.13;;;5.93;75.45
6218;BME280;3142;48.206;11.550;2022-11-15T05:39:31;95450.22;;;6.01;75.41
6218;BME280;3142;48.206;11.550;2022-11-15T05:42:02;95455.09;;;6.04;75.55
6218;BME280;3142;48.206;11.550;2022-11-15T05:44:33;95454.28;;;6.03;75.52
6218;BME280;3142;48.206;11.550;2022-11-15T05:47:00;95453.63;;;6.01;75.42
6218;BME280;3142;48.206;11.550;2022-11-15T05:49:30;95453.31;;;6.04;75.73
6218;BME280;3142;48.206;11.550;2022-11-15T05:51:58;95452.81;;;6.01;75.69
6218;BME280;3142;48.206;11.550;2022-11-15T05:54:24;95453.00;;;5.99;75.51
6218;BME280;3142;48.206;11.550;2022-11-15T05:56:52;95459.31;;;5.82;75.48
6218;BME280;3142;48.206;11.550;2022-11-15T05:59:20;95455.91;;;5.81;75.01
6218;BME280;3142;48.206;11.550;2022-11-15T06:01:46;95446.97;;;5.84;74.93
6218;BME280;3142;48.206;11.550;2022-11-15T06:04:13;95444.19;;;5.85;74.56
6218;BME280;3142;48.206;11.550;2022-11-15T06:06:39;95434.59;;;5.86;74.48
6218;BME280;3142;48.206;11.550;2022-11-15T06:09:06;95439.97;;;5.84;74.90
6218;BME280;3142;48.206;11.550;2022-11-15T06:11:32;95439.34;;;5.82;74.89
6218;BME280;3142;48.206;11.550;2022-11-15T06:13:59;95434.34;;;5.81;74.92
6218;BME280;3142;48.206;11.550;2022-11-15T06:16:27;95432.97;;;5.70;75.10
6218;BME280;3142;48.206;11.550;2022-11-15T06:18:53;95440.84;;;5.62;75.48
6218;BME280;3142;48.206;11.550;2022-11-15T06:21:20;95441.97;;;5.59;75.94
6218;BME280;3142;48.206;11.550;2022-11-15T06:23:46;95441.47;;;5.64;76.14
6218;BME280;3142;48.206;11.550;2022-11-15T06:26:13;95435.00;;;5.60;76.15
6218;BME280;3142;48.206;11.550;2022-11-15T06:28:39;95439.13;;;5.54;76.00
6218;BME280;3142;48.206;11.550;2022-11-15T06:31:07;95434.78;;;5.47;76.18
6218;BME280;3142;48.206;11.550;2022-11-15T06:33:35;95433.72;;;5.41;76.31
6218;BME280;3142;48.206;11.550;2022-11-15T06:36:02;95433.25;;;5.38;76.58
6218;BME280;3142;48.206;11.550;2022-11-15T06:38:29;95434.06;;;5.38;76.71
6218;BME280;3142;48.206;11.550;2022-11-15T06:41:01;95438.38;;;5.46;76.66
6218;BME280;3142;48.206;11.550;2022-11-15T06:43:28;95441.72;;;5.54;76.42
6218;BME280;3142;48.206;11.550;2022-11-15T06:45:54;95453.09;;;5.68;75.67
6218;BME280;3142;48.206;11.550;2022-11-15T06:48:20;95442.00;;;5.97;74.88
6218;BME280;3142;48.206;11.550;2022-11-15T06:50:51;95444.78;;;6.10;73.80
6218;BME280;3142;48.206;11.550;2022-11-15T06:53:18;95455.19;;;6.25;73.46
6218;BME280;3142;48.206;11.550;2022-11-15T06:55:45;95447.56;;;6.38;72.98
6218;BME280;3142;48.206;11.550;2022-11-15T06:58:11;95445.41;;;6.57;72.61
6218;BME280;3142;48.206;11.550;2022-11-15T07:00:38;95447.31;;;6.84;72.48
6218;BME280;3142;48.206;11.550;2022-11-15T07:03:04;95449.41;;;7.10;71.80
6218;BME280;3142;48.206;11.550;2022-11-15T07:05:31;95452.22;;;7.30;70.61
6218;BME280;3142;48.206;11.550;2022-11-15T07:07:59;95448.88;;;7.57;70.79
6218;BME280;3142;48.206;11.550;2022-11-15T07:10:26;95455.66;;;7.80;69.85
6218;BME280;3142;48.206;11.550;2022-11-15T07:12:54;95444.59;;;7.99;69.89
6218;BME280;3142;48.206;11.550;2022-11-15T07:15:22;95447.91;;;8.14;67.74
6218;BME280;3142;48.206;11.550;2022-11-15T07:17:49;95455.19;;;8.25;68.37
6218;BME280;3142;48.206;11.550;2022-11-15T07:20:16;95446.91;;;8.43;67.12
6218;BME280;3142;48.206;11.550;2022-11-15T07:22:43;95447.63;;;8.65;67.05
6218;BME280;3142;48.206;11.550;2022-11-15T07:25:12;95448.34;;;8.94;66.71
6218;BME280;3142;48.206;11.550;2022-11-15T07:27:39;95449.41;;;9.12;65.68
6218;BME280;3142;48.206;11.550;2022-11-15T07:30:06;95449.25;;;9.34;64.87
6218;BME280;3142;48.206;11.550;2022-11-15T07:32:34;95446.47;;;9.48;63.51
6218;BME280;3142;48.206;11.550;2022-11-15T07:35:00;95441.66;;;9.65;62.99
6218;BME280;3142;48.206;11.550;2022-11-15T07:37:27;95450.91;;;9.74;63.10
6218;BME280;3142;48.206;11.550;2022-11-15T07:39:53;95448.09;;;9.89;61.59
6218;BME280;3142;48.206;11.550;2022-11-15T07:42:21;95448.06;;;10.09;61.63
6218;BME280;3142;48.206;11.550;2022-11-15T07:45:06;95445.47;;;10.22;60.99
6218;BME280;3142;48.206;11.550;2022-11-15T07:47:32;95433.38;;;10.28;61.15
6218;BME280;3142;48.206;11.550;2022-11-15T07:49:59;95426.94;;;10.37;61.53
6218;BME280;3142;48.206;11.550;2022-11-15T07:52:25;95420.25;;;10.61;61.11
6218;BME280;3142;48.206;11.550;2022-11-15T07:54:52;95425.84;;;10.71;60.94
6218;BME280;3142;48.206;11.550;2022-11-15T07:57:18;95421.53;;;10.96;60.18
6218;BME280;3142;48.206;11.550;2022-11-15T07:59:46;95431.53;;;11.06;59.37
6218;BME280;3142;48.206;11.550;2022-11-15T08:02:12;95424.66;;;11.12;59.97
6218;BME280;3142;48.206;11.550;2022-11-15T08:04:41;95421.34;;;11.23;59.66
6218;BME280;3142;48.206;11.550;2022-11-15T08:07:09;95418.63;;;11.43;59.56
6218;BME280;3142;48.206;11.550;2022-11-15T08:09:35;95408.56;;;11.65;57.98
6218;BME280;3142;48.206;11.550;2022-11-15T08:12:02;95402.84;;;11.81;58.36
6218;BME280;3142;48.206;11.550;2022-11-15T08:14:28;95404.34;;;11.95;57.83
6218;BME280;3142;48.206;11.550;2022-11-15T08:16:56;95407.56;;;12.15;56.92
6218;BME280;3142;48.206;11.550;2022-11-15T08:19:22;95401.53;;;12.33;57.31
6218;BME280;3142;48.206;11.550;2022-11-15T08:21:49;95398.06;;;12.58;56.71
6218;BME280;3142;48.206;11.550;2022-11-15T08:24:15;95391.84;;;12.70;55.66
6218;BME280;3142;48.206;11.550;2022-11-15T08:26:42;95383.19;;;12.52;55.54
6218;BME280;3142;48.206;11.550;2022-11-15T08:29:08;95374.06;;;12.54;56.14
6218;BME280;3142;48.206;11.550;2022-11-15T08:31:35;95366.09;;;12.79;55.02
6218;BME280;3142;48.206;11.550;2022-11-15T08:34:05;95362.34;;;13.05;55.91
6218;BME280;3142;48.206;11.550;2022-11-15T08:36:32;95362.53;;;13.22;55.75
6218;BME280;3142;48.206;11.550;2022-11-15T08:38:58;95351.63;;;13.48;55.11
6218;BME280;3142;48.206;11.550;2022-11-15T08:41:27;95365.56;;;13.49;54.06
6218;BME280;3142;48.206;11.550;2022-11-15T08:43:54;95351.28;;;13.68;53.17
6218;BME280;3142;48.206;11.550;2022-11-15T08:46:20;95366.97;;;13.86;52.84
6218;BME280;3142;48.206;11.550;2022-11-15T08:48:47;95358.50;;;13.96;53.69
6218;BME280;3142;48.206;11.550;2022-11-15T08:51:15;95364.56;;;14.08;51.97
6218;BME280;3142;48.206;11.550;2022-11-15T08:53:42;95360.34;;;14.19;52.62
6218;BME280;3142;48.206;11.550;2022-11-15T08:56:10;95355.16;;;14.36;52.47
6218;BME280;3142;48.206;11.550;2022-11-15T08:58:37;95370.63;;;14.56;51.07
6218;BME280;3142;48.206;11.550;2022-11-15T09:01:04;95374.09;;;14.73;51.55
6218;BME280;3142;48.206;11.550;2022-11-15T09:03:31;95368.91;;;14.90;51.10
6218;BME280;3142;48.206;11.550;2022-11-15T09:05:59;95361.66;;;14.97;50.46
6218;BME280;3142;48.206;11.550;2022-11-15T09:08:29;95357.72;;;15.11;50.27
6218;BME280;3142;48.206;11.550;2022-11-15T09:10:56;95361.34;;;15.22;50.12
6218;BME280;3142;48.206;11.550;2022-11-15T09:13:23;95352.00;;;15.31;50.58
6218;BME280;3142;48.206;11.550;2022-11-15T09:15:49;95348.19;;;15.38;50.33
6218;BME280;3142;48.206;11.550;2022-11-15T09:18:16;95345.13;;;15.47;50.11
6218;BME280;3142;48.206;11.550;2022-11-15T09:20:42;95340.81;;;15.57;49.71
6218;BME280;3142;48.206;11.550;2022-11-15T09:23:09;95337.84;;;15.65;49.67
6218;BME280;3142;48.206;11.550;2022-11-15T09:25:37;95331.75;;;15.82;48.72
6218;BME280;3142;48.206;11.550;2022-11-15T09:28:06;95331.16;;;15.96;48.33
6218;BME280;3142;48.206;11.550;2022-11-15T09:30:32;95325.78;;;16.08;48.11
6218;BME280;3142;48.206;11.550;2022-11-15T09:32:59;95320.16;;;16.21;48.07
6218;BME280;3142;48.206;11.550;2022-11-15T09:35:31;95326.06;;;16.28;47.69
6218;BME280;3142;48.206;11.550;2022-11-15T09:37:58;95322.00;;;16.43;47.30
6218;BME280;3142;48.206;11.550;2022-11-15T09:40:24;95316.69;;;16.59;47.54
6218;BME280;3142;48.206;11.550;2022-11-15T09:43:21;95314.72;;;16.72;45.97
6218;BME280;3142;48.206;11.550;2022-11-15T09:45:58;95304.91;;;16.67;44.89
6218;BME280;3142;48.206;11.550;2022-11-15T09:48:43;95298.50;;;16.63;44.39
6218;BME280;3142;48.206;11.550;2022-11-15T09:51:17;95306.78;;;16.72;44.94
6218;BME280;3142;48.206;11.550;2022-11-15T09:53:49;95300.28;;;16.79;44.57
6218;BME280;3142;48.206;11.550;2022-11-15T09:56:20;95295.09;;;16.90;44.68
6218;BME280;3142;48.206;11.550;2022-11-15T09:58:53;95288.28;;;16.72;44.04
6218;BME280;3142;48.206;11.550;2022-11-15T10:01:33;95285.59;;;16.88;44.01
6218;BME280;3142;48.206;11.550;2022-11-15T10:04:03;95293.59;;;16.99;43.96
6218;BME280;3142;48.206;11.550;2022-11-15T10:06:31;95286.63;;;16.87;43.81
6218;BME280;3142;48.206;11.550;2022-11-15T10:09:02;95283.13;;;16.82;43.16
6218;BME280;3142;48.206;11.550;2022-11-15T10:11:35;95281.28;;;16.82;43.00
6218;BME280;3142;48.206;11.550;2022-11-15T10:14:09;95276.31;;;16.86;42.89
6218;BME280;3142;48.206;11.550;2022-11-15T10:17:05;95261.38;;;17.02;42.85
6218;BME280;3142;48.206;11.550;2022-11-15T10:19:39;95264.56;;;17.04;42.92
6218;BME280;3142;48.206;11.550;2022-11-15T10:22:19;95255.47;;;16.90;43.19
6218;BME280;3142;48.206;11.550;2022-11-15T10:24:48;95253.41;;;16.70;43.11
6218;BME280;3142;48.206;11.550;2022-11-15T10:27:16;95256.41;;;16.78;42.52
6218;BME280;3142;48.206;11.550;2022-11-15T10:29:46;95246.22;;;16.92;42.88
6218;BME280;3142;48.206;11.550;2022-11-15T10:32:14;95236.31;;;16.77;42.33
6218;BME280;3142;48.206;11.550;2022-11-15T10:34:41;95241.63;;;16.82;42.89
6218;BME280;3142;48.206;11.550;2022-11-15T10:37:08;95240.44;;;16.95;43.08
6218;BME280;3142;48.206;11.550;2022-11-15T10:39:34;95235.88;;;17.17;42.88
6218;BME280;3142;48.206;11.550;2022-11-15T10:42:15;95231.88;;;17.47;42.86
6218;BME280;3142;48.206;11.550;2022-11-15T10:44:45;95223.06;;;17.73;43.14
6218;BME280;3142;48.206;11.550;2022-11-15T10:47:24;95214.16;;;17.95;43.63
6218;BME280;3142;48.206;11.550;2022-11-15T10:49:56;95219.03;;;18.18;42.87
6218;BME280;3142;48.206;11.550;2022-11-15T10:52:23;95219.84;;;18.19;42.20
6218;BME280;3142;48.206;11.550;2022-11-15T10:54:53;95222.00;;;18.32;42.87
6218;BME280;3142;48.206;11.550;2022-11-15T10:57:22;95203.75;;;18.41;41.79
6218;BME280;3142;48.206;11.550;2022-11-15T10:59:52;95201.88;;;18.36;41.65
6218;BME280;3142;48.206;11.550;2022-11-15T11:02:28;95198.47;;;18.41;41.66
6218;BME280;3142;48.206;11.550;2022-11-15T11:04:56;95194.22;;;18.50;41.67
6218;BME280;3142;48.206;11.550;2022-11-15T11:07:25;95186.84;;;18.62;41.64
6218;BME280;3142;48.206;11.550;2022-11-15T11:09:57;95186.88;;;18.77;41.53
6218;BME280;3142;48.206;11.550;2022-11-15T11:12:27;95181.59;;;18.77;40.38
6218;BME280;3142;48.206;11.550;2022-11-15T11:14:57;95177.34;;;18.76;40.30
6218;BME280;3142;48.206;11.550;2022-11-15T11:17:33;95170.19;;;18.77;40.46
6218;BME280;3142;48.206;11.550;2022-11-15T11:20:08;95171.78;;;18.73;40.15
6218;BME280;3142;48.206;11.550;2022-11-15T11:22:42;95159.00;;;18.49;40.08
6218;BME280;3142;48.206;11.550;2022-11-15T11:25:27;95166.16;;;18.49;39.33
6218;BME280;3142;48.206;11.550;2022-11-15T11:28:02;95166.41;;;18.42;39.79
6218;BME280;3142;48.206;11.550;2022-11-15T11:30:40;95161.63;;;18.34;39.24
6218;BME280;3142;48.206;11.550;2022-11-15T11:33:13;95164.50;;;18.17;38.72
6218;BME280;3142;48.206;11.550;2022-11-15T11:35:50;95158.09;;;18.03;39.76
6218;BME280;3142;48.206;11.550;2022-11-15T11:38:32;95143.53;;;18.05;41.07
6218;BME280;3142;48.206;11.550;2022-11-15T11:41:10;95148.81;;;18.00;40.42
6218;BME280;3142;48.206;11.550;2022-11-15T11:43:51;95144.09;;;18.13;41.60
6218;BME280;3142;48.206;11.550;2022-11-15T11:46:38;95137.25;;;18.27;42.34
6218;BME280;3142;48.206;11.550;2022-11-15T11:49:10;95137.47;;;18.10;42.73
6218;BME280;3142;48.206;11.550;2022-11-15T11:51:41;95134.31;;;18.18;43.35
6218;BME280;3142;48.206;11.550;2022-11-15T11:54:12;95131.16;;;18.31;43.30
6218;BME280;3142;48.206;11.550;2022-11-15T11:56:43;95124.56;;;18.39;42.93
6218;BME280;3142;48.206;11.550;2022-11-15T11:59:17;95120.59;;;18.37;42.70
6218;BME280;3142;48.206;11.550;2022-11-15T12:01:46;95122.16;;;18.38;43.29
6218;BME280;3142;48.206;11.550;2022-11-15T12:04:16;95116.88;;;18.43;43.00
6218;BME280;3142;48.206;11.550;2022-11-15T12:06:48;95113.66;;;18.30;43.47
6218;BME280;3142;48.206;11.550;2022-11-15T12:09:20;95101.22;;;18.31;43.20
6218;BME280;3142;48.206;11.550;2022-11-15T12:11:52;95100.97;;;18.32;44.25
6218;BME280;3142;48.206;11.550;2022-11-15T12:14:27;95101.78;;;18.43;43.81
6218;BME280;3142;48.206;11.550;2022-11-15T12:16:57;95103.09;;;18.41;43.72
6218;BME280;3142;48.206;11.550;2022-11-15T12:19:23;95103.63;;;18.38;43.84
6218;BME280;3142;48.206;11.550;2022-11-15T12:21:55;95107.84;;;18.23;43.56
6218;BME280;3142;48.206;11.550;2022-11-15T12:24:26;95107.84;;;18.23;43.73
6218;BME280;3142;48.206;11.550;2022-11-15T12:26:57;95098.84;;;18.29;44.17
6218;BME280;3142;48.206;11.550;2022-11-15T12:29:31;95090.09;;;18.24;43.32
6218;BME280;3142;48.206;11.550;2022-11-15T12:31:59;95088.72;;;18.06;43.97
6218;BME280;3142;48.206;11.550;2022-11-15T12:34:36;95091.34;;;17.86;43.87
6218;BME280;3142;48.206;11.550;2022-11-15T12:37:46;95079.91;;;17.80;44.50
6218;BME280;3142;48.206;11.550;2022-11-15T12:40:28;95081.28;;;17.88;44.60
6218;BME280;3142;48.206;11.550;2022-11-15T12:43:00;95083.66;;;17.94;44.77
6218;BME280;3142;48.206;11.550;2022-11-15T12:45:29;95086.38;;;18.10;44.98
6218;BME280;3142;48.206;11.550;2022-11-15T12:51:02;95080.53;;;18.18;44.80
6218;BME280;3142;48.206;11.550;2022-11-15T12:53:29;95082.41;;;18.27;45.00
6218;BME280;3142;48.206;11.550;2022-11-15T12:56:17;95074.75;;;18.46;44.92
6218;BME280;3142;48.206;11.550;2022-11-15T12:58:46;95076.06;;;18.49;44.33
6218;BME280;3142;48.206;11.550;2022-11-15T13:04:25;95079.78;;;18.32;45.12
6218;BME280;3142;48.206;11.550;2022-11-15T13:06:53;95069.16;;;18.32;44.28
6218;BME280;3142;48.206;11.550;2022-11-15T13:09:52;95064.41;;;18.40;44.45
6218;BME280;3142;48.206;11.550;2022-11-15T13:12:50;95067.84;;;18.45;44.80
6218;BME280;3142;48.206;11.550;2022-11-15T13:15:38;95067.88;;;18.55;45.34
6218;BME280;3142;48.206;11.550;2022-11-15T13:18:26;95067.59;;;18.62;45.18
6218;BME280;3142;48.206;11.550;2022-11-15T13:20:55;95057.28;;;18.40;44.98
6218;BME280;3142;48.206;11.550;2022-11-15T13:23:22;95060.97;;;18.39;45.03
6218;BME280;3142;48.206;11.550;2022-11-15T13:26:12;95061.25;;;18.53;45.40
6218;BME280;3142;48.206;11.550;2022-11-15T13:28:43;95057.78;;;18.62;45.87
6218;BME280;3142;48.206;11.550;2022-11-15T13:31:23;95057.81;;;18.68;45.93
6218;BME280;3142;48.206;11.550;2022-11-15T13:33:51;95062.34;;;18.67;46.17
6218;BME280;3142;48.206;11.550;2022-11-15T13:36:21;95054.94;;;18.64;46.22
6218;BME280;3142;48.206;11.550;2022-11-15T13:38:55;95058.63;;;18.68;45.86
6218;BME280;3142;48.206;11.550;2022-11-15T13:41:24;95056.22;;;18.56;46.67
6218;BME280;3142;48.206;11.550;2022-11-15T13:43:52;95054.66;;;18.66;46.65